sensor_id;sensor_type;location;lat;lon;timestamp;P1;durP1;ratioP1;P2;durP2;ratioP2
40515;SDS011;26216;53.724;9.898;2022-12-16T00:01:01;14.52;;;9.95;;
40515;SDS011;26216;53.724;9.898;2022-12-16T00:06:01;14.00;;;8.80;;
40515;SDS011;26216;53.724;9.898;2022-12-16T00:08:31;12.98;;;8.68;;
40515;SDS011;26216;53.724;9.898;2022-12-16T00:10:58;13.07;;;9.20;;
40515;SDS011;26216;53.724;9.898;2022-12-16T00:13:27;15.90;;;10.15;;
40515;SDS011;26216;53.724;9.898;2022-12-16T00:15:54;14.50;;;9.18;;
40515;SDS011;26216;53.724;9.898;2022-12-16T00:18:20;13.75;;;9.77;;
40515;SDS011;26216;53.724;9.898;2022-12-16T00:20:47;14.80;;;10.05;;
40515;SDS011;26216;53.724;9.898;2022-12-16T00:23:15;17.50;;;10.73;;
40515;SDS011;26216;53.724;9.898;2022-12-16T00:25:42;14.88;;;10.75;;
40515;SDS011;26216;53.724;9.898;2022-12-16T00:28:09;15.48;;;10.88;;
40515;SDS011;26216;53.724;9.898;2022-12-16T00:30:36;15.63;;;10.02;;
40515;SDS011;26216;53.724;9.898;2022-12-16T00:33:02;14.98;;;10.52;;
40515;SDS011;26216;53.724;9.898;2022-12-16T00:35:29;16.83;;;11.50;;
40515;SDS011;26216;53.724;9.898;2022-12-16T00:37:55;16.38;;;11.20;;
40515;SDS011;26216;53.724;9.898;2022-12-16T00:40:22;16.58;;;11.05;;
40515;SDS011;26216;53.724;9.898;2022-12-16T00:42:48;13.43;;;9.35;;
40515;SDS011;26216;53.724;9.898;2022-12-16T00:45:14;16.15;;;10.20;;
40515;SDS011;26216;53.724;9.898;2022-12-16T00:47:40;16.27;;;11.43;;
40515;SDS011;26216;53.724;9.898;2022-12-16T00:50:06;19.25;;;11.57;;
40515;SDS011;26216;53.724;9.898;2022-12-16T00:52:32;18.77;;;10.95;;
40515;SDS011;26216;53.724;9.898;2022-12-16T00:54:58;17.55;;;11.27;;
40515;SDS011;26216;53.724;9.898;2022-12-16T00:57:24;15.00;;;10.50;;
40515;SDS011;26216;53.724;9.898;2022-12-16T00:59:50;21.15;;;11.90;;
40515;SDS011;26216;53.724;9.898;2022-12-16T01:02:16;14.98;;;10.05;;
40515;SDS011;26216;53.724;9.898;2022-12-16T01:04:42;17.05;;;10.52;;
40515;SDS011;26216;53.724;9.898;2022-12-16T01:07:08;14.75;;;9.85;;
40515;SDS011;26216;53.724;9.898;2022-12-16T01:09:34;14.35;;;10.25;;
40515;SDS011;26216;53.724;9.898;2022-12-16T01:12:00;16.00;;;10.80;;
40515;SDS011;26216;53.724;9.898;2022-12-16T01:14:26;15.52;;;11.32;;
40515;SDS011;26216;53.724;9.898;2022-12-16T01:16:52;16.65;;;11.40;;
40515;SDS011;26216;53.724;9.898;2022-12-16T01:19:18;17.30;;;11.90;;
40515;SDS011;26216;53.724;9.898;2022-12-16T01:21:43;17.30;;;11.70;;
40515;SDS011;26216;53.724;9.898;2022-12-16T01:24:10;16.98;;;11.20;;
40515;SDS011;26216;53.724;9.898;2022-12-16T01:26:36;15.73;;;10.50;;
40515;SDS011;26216;53.724;9.898;2022-12-16T01:29:06;15.43;;;10.55;;
40515;SDS011;26216;53.724;9.898;2022-12-16T01:31:32;14.20;;;9.88;;
40515;SDS011;26216;53.724;9.898;2022-12-16T01:33:58;14.85;;;10.18;;
40515;SDS011;26216;53.724;9.898;2022-12-16T01:36:23;14.80;;;9.95;;
40515;SDS011;26216;53.724;9.898;2022-12-16T01:38:50;16.67;;;10.55;;
40515;SDS011;26216;53.724;9.898;2022-12-16T01:41:16;17.33;;;10.75;;
40515;SDS011;26216;53.724;9.898;2022-12-16T01:43:43;15.77;;;9.73;;
40515;SDS011;26216;53.724;9.898;2022-12-16T01:51:12;16.67;;;11.40;;
40515;SDS011;26216;53.724;9.898;2022-12-16T01:53:55;15.23;;;10.88;;
40515;SDS011;26216;53.724;9.898;2022-12-16T01:56:27;15.40;;;11.20;;
40515;SDS011;26216;53.724;9.898;2022-12-16T01:58:55;15.18;;;10.43;;
40515;SDS011;26216;53.724;9.898;2022-12-16T02:03:57;14.82;;;10.23;;
40515;SDS011;26216;53.724;9.898;2022-12-16T02:06:27;16.00;;;11.63;;
40515;SDS011;26216;53.724;9.898;2022-12-16T02:08:54;17.05;;;11.65;;
40515;SDS011;26216;53.724;9.898;2022-12-16T02:33:45;16.50;;;11.70;;
40515;SDS011;26216;53.724;9.898;2022-12-16T02:39:01;16.00;;;10.80;;
40515;SDS011;26216;53.724;9.898;2022-12-16T02:45:03;15.73;;;10.98;;
40515;SDS011;26216;53.724;9.898;2022-12-16T02:47:28;19.02;;;12.25;;
40515;SDS011;26216;53.724;9.898;2022-12-16T02:49:55;22.23;;;13.80;;
40515;SDS011;26216;53.724;9.898;2022-12-16T02:52:22;18.88;;;12.15;;
40515;SDS011;26216;53.724;9.898;2022-12-16T02:54:54;18.15;;;12.30;;
40515;SDS011;26216;53.724;9.898;2022-12-16T02:57:37;15.80;;;10.40;;
40515;SDS011;26216;53.724;9.898;2022-12-16T03:00:13;14.95;;;10.13;;
40515;SDS011;26216;53.724;9.898;2022-12-16T03:08:12;17.95;;;11.93;;
40515;SDS011;26216;53.724;9.898;2022-12-16T03:10:44;15.23;;;10.40;;
40515;SDS011;26216;53.724;9.898;2022-12-16T03:13:17;16.48;;;10.38;;
40515;SDS011;26216;53.724;9.898;2022-12-16T03:15:45;15.80;;;10.65;;
40515;SDS011;26216;53.724;9.898;2022-12-16T03:18:12;15.68;;;10.48;;
40515;SDS011;26216;53.724;9.898;2022-12-16T03:20:49;14.40;;;10.45;;
40515;SDS011;26216;53.724;9.898;2022-12-16T03:23:22;14.77;;;10.18;;
40515;SDS011;26216;53.724;9.898;2022-12-16T03:25:53;14.93;;;10.50;;
40515;SDS011;26216;53.724;9.898;2022-12-16T03:28:32;17.80;;;10.05;;
40515;SDS011;26216;53.724;9.898;2022-12-16T03:36:56;15.23;;;10.20;;
40515;SDS011;26216;53.724;9.898;2022-12-16T03:39:28;14.73;;;10.18;;
40515;SDS011;26216;53.724;9.898;2022-12-16T03:42:00;14.18;;;10.00;;
40515;SDS011;26216;53.724;9.898;2022-12-16T03:44:27;14.88;;;10.18;;
40515;SDS011;26216;53.724;9.898;2022-12-16T03:46:53;14.68;;;9.98;;
40515;SDS011;26216;53.724;9.898;2022-12-16T03:49:20;13.88;;;10.02;;
40515;SDS011;26216;53.724;9.898;2022-12-16T03:51:47;13.45;;;9.75;;
40515;SDS011;26216;53.724;9.898;2022-12-16T03:54:13;13.98;;;10.15;;
40515;SDS011;26216;53.724;9.898;2022-12-16T03:56:39;14.15;;;9.98;;
40515;SDS011;26216;53.724;9.898;2022-12-16T03:59:05;14.93;;;10.88;;
40515;SDS011;26216;53.724;9.898;2022-12-16T04:01:31;16.58;;;10.82;;
40515;SDS011;26216;53.724;9.898;2022-12-16T04:03:57;15.05;;;9.70;;
40515;SDS011;26216;53.724;9.898;2022-12-16T04:06:23;15.40;;;10.90;;
40515;SDS011;26216;53.724;9.898;2022-12-16T04:08:48;16.25;;;11.57;;
40515;SDS011;26216;53.724;9.898;2022-12-16T04:11:14;17.80;;;12.23;;
40515;SDS011;26216;53.724;9.898;2022-12-16T04:13:59;17.38;;;12.07;;
40515;SDS011;26216;53.724;9.898;2022-12-16T04:16:43;16.90;;;10.65;;
40515;SDS011;26216;53.724;9.898;2022-12-16T04:19:34;15.43;;;10.82;;
40515;SDS011;26216;53.724;9.898;2022-12-16T04:22:22;16.48;;;10.82;;
40515;SDS011;26216;53.724;9.898;2022-12-16T04:25:08;14.77;;;9.85;;
40515;SDS011;26216;53.724;9.898;2022-12-16T04:27:38;15.57;;;10.50;;
40515;SDS011;26216;53.724;9.898;2022-12-16T04:30:04;17.13;;;10.27;;
40515;SDS011;26216;53.724;9.898;2022-12-16T04:32:46;14.43;;;9.60;;
40515;SDS011;26216;53.724;9.898;2022-12-16T04:35:37;16.02;;;10.25;;
40515;SDS011;26216;53.724;9.898;2022-12-16T04:38:22;16.33;;;10.27;;
40515;SDS011;26216;53.724;9.898;2022-12-16T04:41:06;14.02;;;9.73;;
40515;SDS011;26216;53.724;9.898;2022-12-16T04:43:51;16.35;;;10.63;;
40515;SDS011;26216;53.724;9.898;2022-12-16T04:46:35;16.90;;;10.77;;
40515;SDS011;26216;53.724;9.898;2022-12-16T04:49:20;15.35;;;10.50;;
40515;SDS011;26216;53.724;9.898;2022-12-16T04:52:04;14.52;;;9.98;;
40515;SDS011;26216;53.724;9.898;2022-12-16T04:54:48;16.60;;;10.10;;
40515;SDS011;26216;53.724;9.898;2022-12-16T04:57:32;14.88;;;10.20;;
40515;SDS011;26216;53.724;9.898;2022-12-16T05:00:17;15.13;;;9.95;;
40515;SDS011;26216;53.724;9.898;2022-12-16T05:03:02;16.40;;;10.38;;
40515;SDS011;26216;53.724;9.898;2022-12-16T05:05:46;15.63;;;11.18;;
40515;SDS011;26216;53.724;9.898;2022-12-16T05:08:31;14.18;;;10.07;;
40515;SDS011;26216;53.724;9.898;2022-12-16T05:11:15;13.63;;;10.18;;
40515;SDS011;26216;53.724;9.898;2022-12-16T05:13:59;15.52;;;9.77;;
40515;SDS011;26216;53.724;9.898;2022-12-16T05:16:46;13.05;;;9.02;;
40515;SDS011;26216;53.724;9.898;2022-12-16T05:19:30;15.35;;;9.95;;
40515;SDS011;26216;53.724;9.898;2022-12-16T05:22:14;15.15;;;10.82;;
40515;SDS011;26216;53.724;9.898;2022-12-16T05:24:59;16.00;;;11.48;;
40515;SDS011;26216;53.724;9.898;2022-12-16T05:27:43;16.67;;;11.10;;
40515;SDS011;26216;53.724;9.898;2022-12-16T05:30:28;18.60;;;12.13;;
40515;SDS011;26216;53.724;9.898;2022-12-16T05:33:12;16.02;;;11.57;;
40515;SDS011;26216;53.724;9.898;2022-12-16T05:35:56;17.83;;;11.10;;
40515;SDS011;26216;53.724;9.898;2022-12-16T05:38:41;16.23;;;11.10;;
40515;SDS011;26216;53.724;9.898;2022-12-16T05:41:25;16.10;;;10.55;;
40515;SDS011;26216;53.724;9.898;2022-12-16T05:44:09;14.60;;;10.00;;
40515;SDS011;26216;53.724;9.898;2022-12-16T05:46:54;15.85;;;10.00;;
40515;SDS011;26216;53.724;9.898;2022-12-16T05:49:38;14.93;;;9.57;;
40515;SDS011;26216;53.724;9.898;2022-12-16T05:52:23;14.15;;;8.77;;
40515;SDS011;26216;53.724;9.898;2022-12-16T05:55:07;14.25;;;9.70;;
40515;SDS011;26216;53.724;9.898;2022-12-16T05:57:51;13.77;;;9.23;;
40515;SDS011;26216;53.724;9.898;2022-12-16T06:00:36;13.88;;;9.23;;
40515;SDS011;26216;53.724;9.898;2022-12-16T06:03:21;15.75;;;9.23;;
40515;SDS011;26216;53.724;9.898;2022-12-16T06:06:05;15.40;;;10.40;;
40515;SDS011;26216;53.724;9.898;2022-12-16T06:08:50;15.60;;;10.55;;
40515;SDS011;26216;53.724;9.898;2022-12-16T06:11:49;17.45;;;11.65;;
40515;SDS011;26216;53.724;9.898;2022-12-16T06:14:34;24.25;;;14.52;;
40515;SDS011;26216;53.724;9.898;2022-12-16T06:17:19;18.63;;;13.40;;
40515;SDS011;26216;53.724;9.898;2022-12-16T06:20:05;19.70;;;13.25;;
40515;SDS011;26216;53.724;9.898;2022-12-16T06:22:51;17.67;;;11.93;;
40515;SDS011;26216;53.724;9.898;2022-12-16T06:25:50;16.30;;;11.85;;
40515;SDS011;26216;53.724;9.898;2022-12-16T06:28:35;16.52;;;11.02;;
40515;SDS011;26216;53.724;9.898;2022-12-16T06:31:21;16.45;;;11.52;;
40515;SDS011;26216;53.724;9.898;2022-12-16T06:34:05;15.50;;;10.65;;
40515;SDS011;26216;53.724;9.898;2022-12-16T06:36:49;13.82;;;9.55;;
40515;SDS011;26216;53.724;9.898;2022-12-16T06:39:34;18.20;;;11.00;;
40515;SDS011;26216;53.724;9.898;2022-12-16T06:42:18;15.90;;;10.13;;
40515;SDS011;26216;53.724;9.898;2022-12-16T06:45:03;14.77;;;10.45;;
40515;SDS011;26216;53.724;9.898;2022-12-16T06:47:47;16.05;;;10.70;;
40515;SDS011;26216;53.724;9.898;2022-12-16T06:50:32;15.35;;;10.02;;
40515;SDS011;26216;53.724;9.898;2022-12-16T06:53:16;14.23;;;9.85;;
40515;SDS011;26216;53.724;9.898;2022-12-16T06:56:00;17.33;;;11.25;;
40515;SDS011;26216;53.724;9.898;2022-12-16T06:58:45;15.77;;;10.27;;
40515;SDS011;26216;53.724;9.898;2022-12-16T07:01:29;16.30;;;10.80;;
40515;SDS011;26216;53.724;9.898;2022-12-16T07:04:17;15.43;;;10.60;;
40515;SDS011;26216;53.724;9.898;2022-12-16T07:07:01;18.67;;;11.77;;
40515;SDS011;26216;53.724;9.898;2022-12-16T07:09:46;19.13;;;12.75;;
40515;SDS011;26216;53.724;9.898;2022-12-16T07:12:31;19.35;;;12.85;;
40515;SDS011;26216;53.724;9.898;2022-12-16T07:15:15;16.85;;;11.48;;
40515;SDS011;26216;53.724;9.898;2022-12-16T07:18:18;16.70;;;11.68;;
40515;SDS011;26216;53.724;9.898;2022-12-16T07:21:22;15.70;;;11.65;;
40515;SDS011;26216;53.724;9.898;2022-12-16T07:24:25;19.50;;;12.05;;
40515;SDS011;26216;53.724;9.898;2022-12-16T07:27:29;17.13;;;11.38;;
40515;SDS011;26216;53.724;9.898;2022-12-16T07:30:32;16.67;;;11.40;;
40515;SDS011;26216;53.724;9.898;2022-12-16T07:33:35;17.88;;;11.95;;
40515;SDS011;26216;53.724;9.898;2022-12-16T07:36:38;18.42;;;12.70;;
40515;SDS011;26216;53.724;9.898;2022-12-16T07:39:42;20.55;;;12.98;;
40515;SDS011;26216;53.724;9.898;2022-12-16T07:42:45;19.70;;;11.95;;
40515;SDS011;26216;53.724;9.898;2022-12-16T07:45:49;18.05;;;12.07;;
40515;SDS011;26216;53.724;9.898;2022-12-16T07:48:52;18.20;;;12.57;;
40515;SDS011;26216;53.724;9.898;2022-12-16T07:51:55;18.83;;;12.63;;
40515;SDS011;26216;53.724;9.898;2022-12-16T07:54:59;20.23;;;12.65;;
40515;SDS011;26216;53.724;9.898;2022-12-16T07:58:02;15.73;;;10.38;;
40515;SDS011;26216;53.724;9.898;2022-12-16T08:01:05;16.83;;;11.23;;
40515;SDS011;26216;53.724;9.898;2022-12-16T08:04:15;16.80;;;11.10;;
40515;SDS011;26216;53.724;9.898;2022-12-16T08:07:18;16.95;;;11.30;;
40515;SDS011;26216;53.724;9.898;2022-12-16T08:10:22;17.02;;;11.90;;
40515;SDS011;26216;53.724;9.898;2022-12-16T08:13:26;21.27;;;13.57;;
40515;SDS011;26216;53.724;9.898;2022-12-16T08:16:29;17.38;;;12.32;;
40515;SDS011;26216;53.724;9.898;2022-12-16T08:19:33;20.30;;;13.45;;
40515;SDS011;26216;53.724;9.898;2022-12-16T08:22:17;25.02;;;16.17;;
40515;SDS011;26216;53.724;9.898;2022-12-16T08:25:01;20.60;;;14.00;;
40515;SDS011;26216;53.724;9.898;2022-12-16T08:27:46;19.83;;;14.07;;
40515;SDS011;26216;53.724;9.898;2022-12-16T08:30:36;20.23;;;13.45;;
40515;SDS011;26216;53.724;9.898;2022-12-16T08:33:20;18.70;;;13.70;;
40515;SDS011;26216;53.724;9.898;2022-12-16T08:36:04;19.10;;;12.50;;
40515;SDS011;26216;53.724;9.898;2022-12-16T08:38:49;19.45;;;13.35;;
40515;SDS011;26216;53.724;9.898;2022-12-16T08:41:33;20.00;;;13.88;;
40515;SDS011;26216;53.724;9.898;2022-12-16T08:44:18;22.23;;;13.88;;
40515;SDS011;26216;53.724;9.898;2022-12-16T08:47:02;20.00;;;13.20;;
40515;SDS011;26216;53.724;9.898;2022-12-16T08:49:47;22.63;;;14.95;;
40515;SDS011;26216;53.724;9.898;2022-12-16T08:52:32;21.17;;;15.15;;
40515;SDS011;26216;53.724;9.898;2022-12-16T08:55:16;19.73;;;13.23;;
40515;SDS011;26216;53.724;9.898;2022-12-16T08:58:01;22.23;;;14.07;;
40515;SDS011;26216;53.724;9.898;2022-12-16T09:00:45;21.10;;;14.70;;
40515;SDS011;26216;53.724;9.898;2022-12-16T09:03:30;24.02;;;15.88;;
40515;SDS011;26216;53.724;9.898;2022-12-16T09:06:14;22.23;;;14.65;;
40515;SDS011;26216;53.724;9.898;2022-12-16T09:08:58;24.13;;;14.45;;
40515;SDS011;26216;53.724;9.898;2022-12-16T09:11:43;22.65;;;16.17;;
40515;SDS011;26216;53.724;9.898;2022-12-16T09:14:27;22.95;;;16.50;;
40515;SDS011;26216;53.724;9.898;2022-12-16T09:17:12;23.65;;;16.48;;
40515;SDS011;26216;53.724;9.898;2022-12-16T09:19:56;25.00;;;16.27;;
40515;SDS011;26216;53.724;9.898;2022-12-16T09:22:41;27.83;;;17.13;;
40515;SDS011;26216;53.724;9.898;2022-12-16T09:25:25;23.95;;;15.77;;
40515;SDS011;26216;53.724;9.898;2022-12-16T09:28:09;24.42;;;17.50;;
40515;SDS011;26216;53.724;9.898;2022-12-16T09:30:54;29.73;;;18.55;;
40515;SDS011;26216;53.724;9.898;2022-12-16T09:33:38;24.20;;;17.80;;
40515;SDS011;26216;53.724;9.898;2022-12-16T09:36:23;27.38;;;18.98;;
40515;SDS011;26216;53.724;9.898;2022-12-16T09:39:07;25.23;;;17.92;;
40515;SDS011;26216;53.724;9.898;2022-12-16T09:44:56;24.98;;;16.83;;
40515;SDS011;26216;53.724;9.898;2022-12-16T09:47:56;24.65;;;16.92;;
40515;SDS011;26216;53.724;9.898;2022-12-16T09:51:07;21.33;;;15.20;;
40515;SDS011;26216;53.724;9.898;2022-12-16T09:53:54;23.55;;;16.52;;
40515;SDS011;26216;53.724;9.898;2022-12-16T09:56:40;25.17;;;17.20;;
40515;SDS011;26216;53.724;9.898;2022-12-16T09:59:33;22.10;;;16.55;;
40515;SDS011;26216;53.724;9.898;2022-12-16T10:02:23;23.88;;;16.30;;
40515;SDS011;26216;53.724;9.898;2022-12-16T10:05:09;26.67;;;18.50;;
40515;SDS011;26216;53.724;9.898;2022-12-16T10:08:18;23.90;;;16.30;;
40515;SDS011;26216;53.724;9.898;2022-12-16T10:11:10;24.65;;;16.70;;
40515;SDS011;26216;53.724;9.898;2022-12-16T10:14:18;24.00;;;16.52;;
40515;SDS011;26216;53.724;9.898;2022-12-16T10:26:16;25.10;;;16.58;;
40515;SDS011;26216;53.724;9.898;2022-12-16T10:29:19;22.38;;;15.90;;
40515;SDS011;26216;53.724;9.898;2022-12-16T10:35:16;20.30;;;14.50;;
40515;SDS011;26216;53.724;9.898;2022-12-16T10:38:35;22.45;;;16.15;;
40515;SDS011;26216;53.724;9.898;2022-12-16T10:41:33;22.60;;;15.98;;
40515;SDS011;26216;53.724;9.898;2022-12-16T10:44:23;22.63;;;15.95;;
40515;SDS011;26216;53.724;9.898;2022-12-16T10:47:12;22.92;;;16.08;;
40515;SDS011;26216;53.724;9.898;2022-12-16T10:49:56;22.52;;;15.40;;
40515;SDS011;26216;53.724;9.898;2022-12-16T10:52:43;24.17;;;16.70;;
40515;SDS011;26216;53.724;9.898;2022-12-16T10:55:48;24.33;;;17.42;;
40515;SDS011;26216;53.724;9.898;2022-12-16T10:59:02;21.20;;;15.90;;
40515;SDS011;26216;53.724;9.898;2022-12-16T11:02:02;21.25;;;15.20;;
40515;SDS011;26216;53.724;9.898;2022-12-16T11:08:23;22.15;;;15.48;;
40515;SDS011;26216;53.724;9.898;2022-12-16T11:11:22;23.52;;;16.50;;
40515;SDS011;26216;53.724;9.898;2022-12-16T11:14:22;23.92;;;16.02;;
40515;SDS011;26216;53.724;9.898;2022-12-16T11:17:10;20.40;;;14.73;;
40515;SDS011;26216;53.724;9.898;2022-12-16T11:20:12;24.75;;;16.45;;
40515;SDS011;26216;53.724;9.898;2022-12-16T11:23:25;24.10;;;16.77;;
40515;SDS011;26216;53.724;9.898;2022-12-16T11:26:17;26.90;;;18.45;;
40515;SDS011;26216;53.724;9.898;2022-12-16T11:29:15;29.95;;;19.63;;
40515;SDS011;26216;53.724;9.898;2022-12-16T11:32:24;25.38;;;16.27;;
40515;SDS011;26216;53.724;9.898;2022-12-16T11:35:14;27.35;;;19.35;;
40515;SDS011;26216;53.724;9.898;2022-12-16T11:38:02;24.65;;;16.50;;
40515;SDS011;26216;53.724;9.898;2022-12-16T11:40:49;23.88;;;16.55;;
40515;SDS011;26216;53.724;9.898;2022-12-16T11:43:33;22.05;;;15.75;;
40515;SDS011;26216;53.724;9.898;2022-12-16T11:46:24;25.30;;;17.08;;
40515;SDS011;26216;53.724;9.898;2022-12-16T11:49:21;22.88;;;16.33;;
40515;SDS011;26216;53.724;9.898;2022-12-16T11:52:15;22.42;;;15.65;;
40515;SDS011;26216;53.724;9.898;2022-12-16T11:55:06;18.48;;;13.95;;
40515;SDS011;26216;53.724;9.898;2022-12-16T11:58:59;20.65;;;14.55;;
40515;SDS011;26216;53.724;9.898;2022-12-16T12:01:46;17.38;;;13.40;;
40515;SDS011;26216;53.724;9.898;2022-12-16T12:04:38;18.73;;;14.00;;
40515;SDS011;26216;53.724;9.898;2022-12-16T12:10:12;19.77;;;14.27;;
40515;SDS011;26216;53.724;9.898;2022-12-16T12:13:38;21.80;;;14.77;;
40515;SDS011;26216;53.724;9.898;2022-12-16T12:16:37;21.13;;;14.95;;
40515;SDS011;26216;53.724;9.898;2022-12-16T12:22:41;18.98;;;14.27;;
40515;SDS011;26216;53.724;9.898;2022-12-16T12:28:52;21.10;;;14.32;;
40515;SDS011;26216;53.724;9.898;2022-12-16T12:31:52;19.15;;;14.25;;
40515;SDS011;26216;53.724;9.898;2022-12-16T12:34:47;22.63;;;15.32;;
40515;SDS011;26216;53.724;9.898;2022-12-16T12:37:40;19.63;;;13.88;;
40515;SDS011;26216;53.724;9.898;2022-12-16T12:46:38;24.17;;;16.48;;
40515;SDS011;26216;53.724;9.898;2022-12-16T12:55:34;26.02;;;17.75;;
40515;SDS011;26216;53.724;9.898;2022-12-16T12:58:28;25.02;;;16.45;;
40515;SDS011;26216;53.724;9.898;2022-12-16T13:01:18;21.50;;;16.40;;
40515;SDS011;26216;53.724;9.898;2022-12-16T13:04:15;19.75;;;15.07;;
40515;SDS011;26216;53.724;9.898;2022-12-16T13:07:03;24.08;;;16.23;;
40515;SDS011;26216;53.724;9.898;2022-12-16T13:10:11;20.35;;;15.48;;
40515;SDS011;26216;53.724;9.898;2022-12-16T13:13:28;23.00;;;16.40;;
40515;SDS011;26216;53.724;9.898;2022-12-16T13:22:30;23.88;;;16.95;;
40515;SDS011;26216;53.724;9.898;2022-12-16T13:28:36;25.27;;;18.55;;
40515;SDS011;26216;53.724;9.898;2022-12-16T13:31:23;24.10;;;17.08;;
40515;SDS011;26216;53.724;9.898;2022-12-16T13:37:01;22.42;;;15.32;;
40515;SDS011;26216;53.724;9.898;2022-12-16T13:40:05;22.15;;;15.18;;
40515;SDS011;26216;53.724;9.898;2022-12-16T13:55:29;22.67;;;16.73;;
40515;SDS011;26216;53.724;9.898;2022-12-16T14:02:12;21.67;;;15.73;;
40515;SDS011;26216;53.724;9.898;2022-12-16T14:05:18;20.67;;;15.85;;
40515;SDS011;26216;53.724;9.898;2022-12-16T14:08:12;21.77;;;15.55;;
40515;SDS011;26216;53.724;9.898;2022-12-16T14:11:01;22.42;;;15.90;;
40515;SDS011;26216;53.724;9.898;2022-12-16T14:14:00;22.65;;;16.13;;
40515;SDS011;26216;53.724;9.898;2022-12-16T14:17:35;21.25;;;15.68;;
40515;SDS011;26216;53.724;9.898;2022-12-16T14:20:30;22.63;;;17.13;;
40515;SDS011;26216;53.724;9.898;2022-12-16T14:23:33;24.52;;;16.77;;
40515;SDS011;26216;53.724;9.898;2022-12-16T14:26:42;21.27;;;16.38;;
40515;SDS011;26216;53.724;9.898;2022-12-16T14:29:29;23.80;;;17.45;;
40515;SDS011;26216;53.724;9.898;2022-12-16T14:32:28;23.85;;;17.52;;
40515;SDS011;26216;53.724;9.898;2022-12-16T14:35:17;25.33;;;17.52;;
40515;SDS011;26216;53.724;9.898;2022-12-16T14:38:26;25.65;;;17.13;;
40515;SDS011;26216;53.724;9.898;2022-12-16T14:41:13;23.42;;;16.30;;
40515;SDS011;26216;53.724;9.898;2022-12-16T14:44:00;24.20;;;16.05;;
40515;SDS011;26216;53.724;9.898;2022-12-16T14:47:17;23.35;;;16.05;;
40515;SDS011;26216;53.724;9.898;2022-12-16T14:50:03;22.77;;;15.45;;
40515;SDS011;26216;53.724;9.898;2022-12-16T14:53:21;22.45;;;15.80;;
40515;SDS011;26216;53.724;9.898;2022-12-16T14:56:13;22.00;;;15.73;;
40515;SDS011;26216;53.724;9.898;2022-12-16T14:59:12;21.90;;;15.68;;
40515;SDS011;26216;53.724;9.898;2022-12-16T15:05:11;24.23;;;16.77;;
40515;SDS011;26216;53.724;9.898;2022-12-16T15:07:56;20.02;;;14.50;;
40515;SDS011;26216;53.724;9.898;2022-12-16T15:10:42;21.40;;;15.60;;
40515;SDS011;26216;53.724;9.898;2022-12-16T15:13:26;22.23;;;15.15;;
40515;SDS011;26216;53.724;9.898;2022-12-16T15:16:14;20.63;;;14.57;;
40515;SDS011;26216;53.724;9.898;2022-12-16T15:19:02;20.98;;;15.02;;
40515;SDS011;26216;53.724;9.898;2022-12-16T15:21:47;19.70;;;14.15;;
40515;SDS011;26216;53.724;9.898;2022-12-16T15:24:33;22.52;;;15.10;;
40515;SDS011;26216;53.724;9.898;2022-12-16T15:27:35;21.25;;;14.43;;
40515;SDS011;26216;53.724;9.898;2022-12-16T15:30:37;19.55;;;14.27;;
40515;SDS011;26216;53.724;9.898;2022-12-16T15:33:28;20.33;;;14.50;;
40515;SDS011;26216;53.724;9.898;2022-12-16T15:39:10;20.48;;;14.40;;
40515;SDS011;26216;53.724;9.898;2022-12-16T15:42:26;21.48;;;14.55;;
40515;SDS011;26216;53.724;9.898;2022-12-16T15:48:17;22.02;;;15.40;;
40515;SDS011;26216;53.724;9.898;2022-12-16T15:51:03;20.75;;;14.75;;
40515;SDS011;26216;53.724;9.898;2022-12-16T15:54:00;23.75;;;15.77;;
40515;SDS011;26216;53.724;9.898;2022-12-16T15:56:46;21.40;;;14.95;;
40515;SDS011;26216;53.724;9.898;2022-12-16T15:59:32;19.25;;;14.25;;
40515;SDS011;26216;53.724;9.898;2022-12-16T16:02:28;21.30;;;14.32;;
40515;SDS011;26216;53.724;9.898;2022-12-16T16:07:57;19.70;;;14.38;;
40515;SDS011;26216;53.724;9.898;2022-12-16T16:10:42;23.65;;;15.88;;
40515;SDS011;26216;53.724;9.898;2022-12-16T16:13:27;23.67;;;15.88;;
40515;SDS011;26216;53.724;9.898;2022-12-16T16:16:12;22.92;;;16.70;;
40515;SDS011;26216;53.724;9.898;2022-12-16T16:18:57;25.13;;;17.77;;
40515;SDS011;26216;53.724;9.898;2022-12-16T16:21:42;24.45;;;17.15;;
40515;SDS011;26216;53.724;9.898;2022-12-16T16:24:27;23.70;;;16.63;;
40515;SDS011;26216;53.724;9.898;2022-12-16T16:27:12;24.00;;;16.85;;
40515;SDS011;26216;53.724;9.898;2022-12-16T16:29:58;25.10;;;16.63;;
40515;SDS011;26216;53.724;9.898;2022-12-16T16:32:43;23.08;;;16.70;;
40515;SDS011;26216;53.724;9.898;2022-12-16T16:35:28;24.17;;;16.48;;
40515;SDS011;26216;53.724;9.898;2022-12-16T16:38:15;25.30;;;16.67;;
40515;SDS011;26216;53.724;9.898;2022-12-16T16:40:59;24.95;;;17.10;;
40515;SDS011;26216;53.724;9.898;2022-12-16T16:43:44;22.52;;;16.38;;
40515;SDS011;26216;53.724;9.898;2022-12-16T16:46:46;24.08;;;16.67;;
40515;SDS011;26216;53.724;9.898;2022-12-16T16:49:32;22.65;;;15.88;;
40515;SDS011;26216;53.724;9.898;2022-12-16T16:52:25;22.02;;;15.70;;
40515;SDS011;26216;53.724;9.898;2022-12-16T16:55:18;23.70;;;15.80;;
40515;SDS011;26216;53.724;9.898;2022-12-16T16:58:19;23.50;;;16.20;;
40515;SDS011;26216;53.724;9.898;2022-12-16T17:01:12;23.30;;;16.17;;
40515;SDS011;26216;53.724;9.898;2022-12-16T17:03:57;25.63;;;18.02;;
40515;SDS011;26216;53.724;9.898;2022-12-16T17:06:42;27.35;;;19.27;;
40515;SDS011;26216;53.724;9.898;2022-12-16T17:09:26;29.27;;;20.17;;
40515;SDS011;26216;53.724;9.898;2022-12-16T17:12:18;32.63;;;21.50;;
40515;SDS011;26216;53.724;9.898;2022-12-16T17:15:19;28.80;;;20.50;;
40515;SDS011;26216;53.724;9.898;2022-12-16T17:18:05;30.10;;;19.88;;
40515;SDS011;26216;53.724;9.898;2022-12-16T17:20:51;29.55;;;19.48;;
40515;SDS011;26216;53.724;9.898;2022-12-16T17:23:36;27.88;;;20.13;;
40515;SDS011;26216;53.724;9.898;2022-12-16T17:26:21;26.88;;;18.73;;
40515;SDS011;26216;53.724;9.898;2022-12-16T17:29:07;26.00;;;17.80;;
40515;SDS011;26216;53.724;9.898;2022-12-16T17:32:06;30.50;;;19.00;;
40515;SDS011;26216;53.724;9.898;2022-12-16T17:34:50;26.13;;;17.85;;
40515;SDS011;26216;53.724;9.898;2022-12-16T17:37:36;23.40;;;16.77;;
40515;SDS011;26216;53.724;9.898;2022-12-16T17:40:21;25.80;;;16.98;;
40515;SDS011;26216;53.724;9.898;2022-12-16T17:43:05;23.45;;;16.05;;
40515;SDS011;26216;53.724;9.898;2022-12-16T17:45:56;24.02;;;16.73;;
40515;SDS011;26216;53.724;9.898;2022-12-16T17:48:58;23.40;;;17.23;;
40515;SDS011;26216;53.724;9.898;2022-12-16T17:51:42;25.40;;;17.15;;
40515;SDS011;26216;53.724;9.898;2022-12-16T17:54:30;24.77;;;16.70;;
40515;SDS011;26216;53.724;9.898;2022-12-16T17:57:14;21.92;;;15.27;;
40515;SDS011;26216;53.724;9.898;2022-12-16T17:59:59;20.90;;;14.65;;
40515;SDS011;26216;53.724;9.898;2022-12-16T18:02:43;19.52;;;14.30;;
40515;SDS011;26216;53.724;9.898;2022-12-16T18:05:27;21.33;;;14.45;;
40515;SDS011;26216;53.724;9.898;2022-12-16T18:08:12;20.50;;;14.20;;
40515;SDS011;26216;53.724;9.898;2022-12-16T18:10:56;21.17;;;14.43;;
40515;SDS011;26216;53.724;9.898;2022-12-16T18:13:41;20.70;;;14.40;;
40515;SDS011;26216;53.724;9.898;2022-12-16T18:16:27;22.05;;;14.93;;
40515;SDS011;26216;53.724;9.898;2022-12-16T18:19:12;21.77;;;15.05;;
40515;SDS011;26216;53.724;9.898;2022-12-16T18:21:58;24.13;;;15.48;;